createdAt,value
2023-05-12T00:02:14.340Z,4.47
2023-05-12T00:04:41.512Z,4.30
2023-05-12T00:07:08.318Z,4.00
2023-05-12T00:17:48.036Z,3.92
2023-05-12T00:25:43.584Z,4.50
2023-05-12T00:28:10.266Z,3.95
2023-05-12T00:33:08.172Z,4.30
2023-05-12T00:35:34.878Z,4.57
2023-05-12T00:38:01.545Z,4.50
2023-05-12T00:40:28.225Z,4.35
2023-05-12T00:42:54.945Z,4.50
2023-05-12T00:45:22.323Z,4.72
2023-05-12T00:47:50.514Z,5.50
2023-05-12T00:50:17.565Z,4.75
2023-05-12T00:52:44.414Z,5.15
2023-05-12T00:55:11.586Z,4.70
2023-05-12T00:57:38.842Z,4.72
2023-05-12T01:00:07.624Z,5.15
2023-05-12T01:02:35.255Z,5.80
2023-05-12T01:05:02.626Z,4.75
2023-05-12T01:07:32.166Z,4.78
2023-05-12T01:09:59.760Z,5.22
2023-05-12T01:12:28.221Z,5.50
2023-05-12T01:19:53.992Z,5.25
2023-05-12T01:27:15.861Z,5.10
2023-05-12T01:29:43.832Z,5.50
2023-05-12T01:32:10.959Z,5.47
2023-05-12T01:41:53.870Z,5.78
2023-05-12T01:44:21.694Z,4.90
2023-05-12T01:46:49.730Z,6.00
2023-05-12T01:51:41.974Z,4.88
2023-05-12T01:54:08.707Z,5.63
2023-05-12T01:59:03.416Z,4.90
2023-05-12T02:01:31.588Z,5.32
2023-05-12T02:06:24.839Z,5.28
2023-05-12T02:08:51.943Z,4.88
2023-05-12T02:11:18.910Z,4.20
2023-05-12T02:13:45.653Z,4.75
2023-05-12T02:16:12.683Z,4.22
2023-05-12T02:26:25.763Z,4.03
2023-05-12T02:28:53.152Z,4.18
2023-05-12T02:31:20.656Z,4.47
2023-05-12T02:33:47.483Z,4.32
2023-05-12T02:36:14.370Z,4.60
2023-05-12T02:38:41.337Z,4.15
2023-05-12T02:41:08.075Z,4.60
2023-05-12T02:43:36.469Z,5.15
2023-05-12T02:46:03.215Z,5.53
2023-05-12T02:48:30.680Z,4.85
2023-05-12T02:50:57.424Z,4.65
2023-05-12T02:53:24.062Z,4.85
2023-05-12T03:00:42.081Z,4.90
2023-05-12T03:03:09.121Z,4.45
2023-05-12T03:05:35.916Z,5.10
2023-05-12T03:08:02.654Z,5.47
2023-05-12T03:12:54.780Z,5.57
2023-05-12T03:15:21.496Z,6.28
2023-05-12T03:17:48.153Z,6.10
2023-05-12T03:20:15.071Z,5.95
2023-05-12T03:22:43.226Z,5.88
2023-05-12T03:25:10.842Z,6.20
2023-05-12T03:27:55.867Z,6.45
2023-05-12T03:30:22.520Z,6.53
2023-05-12T03:32:49.271Z,6.90
2023-05-12T03:35:16.049Z,6.30
2023-05-12T03:37:42.667Z,7.00
2023-05-12T03:40:09.880Z,6.45
2023-05-12T03:42:40.387Z,7.25
2023-05-12T03:45:07.412Z,7.63
2023-05-12T03:47:36.025Z,7.40
2023-05-12T03:50:03.357Z,8.05
2023-05-12T03:57:21.336Z,7.75
2023-05-12T04:02:38.309Z,7.85
2023-05-12T04:05:08.305Z,7.30
2023-05-12T04:07:35.284Z,7.47
2023-05-12T04:10:05.547Z,7.22
2023-05-12T04:12:32.267Z,6.78
2023-05-12T04:14:59.452Z,7.32
2023-05-12T04:17:26.216Z,7.32
2023-05-12T04:19:53.612Z,8.35
2023-05-12T04:22:20.288Z,6.90
2023-05-12T04:27:12.486Z,7.97
2023-05-12T04:29:39.852Z,7.20
2023-05-12T04:34:32.215Z,6.85
2023-05-12T04:36:59.295Z,6.35
2023-05-12T04:41:51.533Z,6.55
2023-05-12T04:44:18.991Z,6.60
2023-05-12T04:46:45.910Z,6.65
2023-05-12T04:49:12.663Z,6.57
2023-05-12T04:51:42.430Z,6.45
2023-05-12T04:54:09.985Z,7.20
2023-05-12T04:56:37.330Z,6.60
2023-05-12T04:59:04.080Z,7.13
2023-05-12T05:01:31.080Z,6.60
2023-05-12T05:03:58.007Z,7.35
2023-05-12T05:06:25.366Z,7.22
2023-05-12T05:14:11.298Z,7.00
2023-05-12T05:16:38.831Z,7.13
2023-05-12T05:21:32.967Z,7.57
2023-05-12T05:23:59.859Z,7.40
2023-05-12T05:28:55.261Z,7.45
2023-05-12T05:31:24.035Z,6.88
2023-05-12T05:38:42.299Z,7.95
2023-05-12T05:41:09.078Z,7.75
2023-05-12T05:43:36.055Z,7.03
2023-05-12T05:46:02.669Z,8.38
2023-05-12T05:50:54.991Z,9.85
2023-05-12T05:53:23.345Z,10.65
2023-05-12T05:55:50.918Z,10.18
2023-05-12T05:58:17.785Z,9.57
2023-05-12T06:00:45.870Z,9.77
2023-05-12T06:05:38.249Z,9.35
2023-05-12T06:08:09.429Z,9.65
2023-05-12T06:13:01.610Z,9.85
2023-05-12T06:15:28.339Z,10.30
2023-05-12T06:17:55.160Z,9.20
2023-05-12T06:20:23.338Z,9.52
2023-05-12T06:22:50.034Z,9.57
2023-05-12T06:27:42.219Z,9.75
2023-05-12T06:30:09.691Z,10.25
2023-05-12T06:35:01.872Z,10.27
2023-05-12T06:37:28.746Z,7.78
2023-05-12T06:39:55.528Z,7.82
2023-05-12T06:42:24.162Z,7.38
2023-05-12T06:44:51.998Z,7.38
2023-05-12T06:47:18.696Z,7.43
2023-05-12T06:49:46.338Z,7.60
2023-05-12T06:52:13.106Z,10.13
2023-05-12T06:54:41.271Z,8.43
2023-05-12T06:57:08.067Z,8.25
2023-05-12T06:59:34.818Z,9.35
2023-05-12T07:02:01.586Z,7.93
2023-05-12T07:04:29.733Z,8.98
2023-05-12T07:06:59.852Z,8.38
2023-05-12T07:09:26.874Z,9.05
2023-05-12T07:11:56.833Z,8.05
2023-05-12T07:14:23.664Z,8.90
2023-05-12T07:16:50.410Z,8.77
2023-05-12T07:19:17.204Z,8.80
2023-05-12T07:21:44.083Z,8.52
2023-05-12T07:26:36.232Z,8.93
2023-05-12T07:29:04.127Z,8.85
2023-05-12T07:31:31.385Z,8.32
2023-05-12T07:33:58.105Z,7.68
2023-05-12T07:36:24.734Z,8.82
2023-05-12T07:41:17.546Z,8.88
2023-05-12T07:43:44.416Z,7.72
2023-05-12T07:46:11.220Z,8.25
2023-05-12T07:48:40.331Z,7.60
2023-05-12T07:51:07.591Z,7.47
2023-05-12T07:53:34.350Z,8.55
2023-05-12T07:56:01.114Z,7.10
2023-05-12T07:58:27.866Z,7.32
2023-05-12T08:00:54.735Z,8.10
2023-05-12T08:03:21.602Z,7.63
2023-05-12T08:05:48.343Z,8.23
2023-05-12T08:08:16.894Z,8.07
2023-05-12T08:10:44.396Z,7.65
2023-05-12T08:13:11.225Z,7.32
2023-05-12T08:15:37.912Z,7.57
2023-05-12T08:18:04.812Z,6.20
2023-05-12T08:23:03.244Z,6.32
2023-05-12T08:25:30.780Z,5.90
2023-05-12T08:27:59.421Z,5.10
2023-05-12T08:36:13.876Z,2.92
2023-05-12T08:38:40.593Z,2.50
2023-05-12T08:48:31.136Z,2.63
2023-05-12T08:50:58.063Z,2.65
2023-05-12T08:53:25.977Z,2.42
2023-05-12T08:57:09.582Z,2.60
2023-05-12T09:01:06.731Z,2.35
2023-05-12T09:03:34.267Z,2.28
2023-05-12T09:08:28.384Z,3.05
2023-05-12T09:10:58.532Z,2.40
2023-05-12T09:23:22.383Z,3.00
2023-05-12T09:28:34.194Z,2.65
2023-05-12T09:31:00.908Z,2.60
2023-05-12T09:33:27.531Z,2.60
2023-05-12T09:35:54.148Z,2.35
2023-05-12T09:38:20.824Z,2.72
2023-05-12T09:40:47.592Z,2.65
2023-05-12T09:48:12.095Z,2.90
2023-05-12T09:55:42.827Z,3.53
2023-05-12T09:58:11.007Z,3.33
2023-05-12T10:01:06.022Z,3.65
2023-05-12T10:05:59.377Z,3.90
2023-05-12T10:13:25.031Z,5.57
2023-05-12T10:20:46.405Z,5.32
2023-05-12T10:23:13.694Z,5.88
2023-05-12T10:25:41.446Z,5.80
2023-05-12T10:28:08.772Z,6.10
2023-05-12T10:35:32.458Z,7.18
2023-05-12T10:38:05.859Z,6.72
2023-05-12T10:40:32.692Z,8.85
2023-05-12T10:43:01.801Z,8.68
2023-05-12T10:45:28.553Z,9.20
2023-05-12T10:48:04.949Z,8.55
2023-05-12T10:52:58.333Z,9.40
2023-05-12T10:55:43.656Z,11.10
2023-05-12T10:58:12.437Z,11.65
2023-05-12T11:03:13.071Z,10.45
2023-05-12T11:05:40.300Z,9.95
2023-05-12T11:10:33.540Z,10.52
2023-05-12T11:13:00.658Z,9.13
2023-05-12T11:17:53.859Z,6.82
2023-05-12T11:20:28.153Z,8.43
2023-05-12T11:22:56.264Z,7.40
2023-05-12T11:25:23.161Z,6.18
2023-05-12T11:27:53.298Z,5.43
2023-05-12T11:30:20.232Z,4.80
2023-05-12T11:32:47.155Z,4.68
2023-05-12T11:35:15.124Z,4.80
2023-05-12T11:37:42.432Z,4.60
2023-05-12T11:40:22.027Z,4.10
2023-05-12T11:48:16.651Z,3.55
2023-05-12T11:50:44.648Z,3.00
2023-05-12T11:53:13.696Z,3.03
2023-05-12T11:55:55.950Z,3.50
2023-05-12T11:58:30.730Z,4.22
2023-05-12T12:00:57.783Z,2.63
2023-05-12T12:03:25.267Z,3.47
2023-05-12T12:06:02.308Z,3.60
2023-05-12T12:08:29.182Z,3.17
2023-05-12T12:10:55.842Z,3.80
2023-05-12T12:13:23.820Z,4.50
2023-05-12T12:15:50.924Z,4.68
2023-05-12T12:18:17.728Z,5.47
2023-05-12T12:20:44.834Z,5.40
2023-05-12T12:23:11.836Z,5.43
2023-05-12T12:25:38.622Z,4.47
2023-05-12T12:28:05.352Z,6.85
2023-05-12T12:30:32.030Z,6.90
2023-05-12T12:32:58.782Z,6.68
2023-05-12T12:40:20.290Z,4.75
2023-05-12T12:45:13.770Z,8.18
2023-05-12T12:47:40.636Z,9.70
2023-05-12T12:57:24.672Z,8.02
2023-05-12T12:59:51.334Z,9.73
2023-05-12T13:02:18.220Z,9.50
2023-05-12T13:04:44.928Z,7.07
2023-05-12T13:07:11.585Z,9.38
2023-05-12T13:09:38.269Z,7.80
2023-05-12T13:14:32.863Z,7.10
2023-05-12T13:16:59.692Z,9.23
2023-05-12T13:21:51.861Z,9.15
2023-05-12T13:24:18.605Z,9.35
2023-05-12T13:26:45.368Z,9.38
2023-05-12T13:29:12.056Z,8.25
2023-05-12T13:31:38.914Z,7.72
2023-05-12T13:36:34.612Z,7.72
2023-05-12T13:39:02.876Z,9.82
2023-05-12T13:43:55.616Z,8.15
2023-05-12T13:46:22.903Z,8.25
2023-05-12T13:51:16.864Z,7.80
2023-05-12T13:53:43.597Z,9.50
2023-05-12T13:56:16.993Z,9.70
2023-05-12T13:58:44.146Z,8.98
2023-05-12T14:01:11.196Z,8.05
2023-05-12T14:03:38.080Z,8.32
2023-05-12T14:06:05.183Z,8.82
2023-05-12T14:08:31.770Z,9.73
2023-05-12T14:10:58.897Z,9.32
2023-05-12T14:13:26.319Z,8.20
2023-05-12T14:15:53.982Z,8.52
2023-05-12T14:18:21.088Z,7.60
2023-05-12T14:20:47.987Z,7.50
2023-05-12T14:23:14.611Z,8.10
2023-05-12T14:28:06.936Z,7.65
2023-05-12T14:30:35.376Z,7.18
2023-05-12T14:33:02.645Z,7.05
2023-05-12T14:35:29.671Z,7.78
2023-05-12T14:37:56.896Z,9.05
2023-05-12T14:42:49.528Z,8.20
2023-05-12T14:45:16.336Z,8.35
2023-05-12T14:47:43.084Z,7.68
2023-05-12T14:50:10.455Z,8.95
2023-05-12T14:52:38.734Z,9.93
2023-05-12T14:55:12.593Z,8.52
2023-05-12T14:57:39.991Z,8.18
2023-05-12T15:00:13.417Z,10.05
2023-05-12T15:02:40.590Z,8.65
2023-05-12T15:05:08.586Z,10.30
2023-05-12T15:07:35.350Z,10.93
2023-05-12T15:10:02.226Z,10.88
2023-05-12T15:12:29.032Z,10.45
2023-05-12T15:15:01.311Z,11.15
2023-05-12T15:17:28.557Z,11.88
2023-05-12T15:19:55.956Z,11.90
2023-05-12T15:22:23.793Z,11.90
2023-05-12T15:24:50.572Z,11.45
2023-05-12T15:27:17.186Z,11.65
2023-05-12T15:37:00.973Z,10.07
2023-05-12T15:41:53.568Z,10.18
2023-05-12T15:44:21.497Z,10.55
2023-05-12T15:46:48.278Z,9.02
2023-05-12T15:49:15.105Z,7.68
2023-05-12T15:51:41.810Z,8.98
2023-05-12T15:54:09.506Z,8.93
2023-05-12T15:56:37.431Z,8.48
2023-05-12T15:59:05.350Z,7.88
2023-05-12T16:06:22.997Z,8.63
2023-05-12T16:08:49.777Z,8.27
2023-05-12T16:11:17.012Z,7.65
2023-05-12T16:13:43.872Z,7.70
2023-05-12T16:18:36.186Z,7.97
2023-05-12T16:21:03.577Z,6.18
2023-05-12T16:23:30.333Z,6.75
2023-05-12T16:25:57.374Z,5.60
2023-05-12T16:28:24.033Z,4.82
2023-05-12T16:33:16.040Z,3.92
2023-05-12T16:35:42.744Z,4.72
2023-05-12T16:40:34.917Z,4.93
2023-05-12T16:43:02.066Z,4.68
2023-05-12T16:50:19.673Z,3.60
2023-05-12T16:52:46.465Z,2.63
2023-05-12T16:55:13.245Z,3.03
2023-05-12T16:57:41.430Z,3.15
2023-05-12T17:00:10.629Z,3.78
2023-05-12T17:02:38.969Z,3.83
2023-05-12T17:07:31.611Z,3.67
2023-05-12T17:09:58.407Z,4.40
2023-05-12T17:15:03.356Z,3.10
2023-05-12T17:17:30.833Z,3.67
2023-05-12T17:19:57.603Z,3.60
2023-05-12T17:22:24.370Z,3.42
2023-05-12T17:24:51.403Z,3.50
2023-05-12T17:27:18.149Z,2.83
2023-05-12T17:29:44.818Z,3.40
2023-05-12T17:34:37.018Z,4.28
2023-05-12T17:37:06.101Z,3.85
2023-05-12T17:41:59.319Z,2.92
2023-05-12T17:44:26.031Z,4.18
2023-05-12T17:46:52.753Z,3.42
2023-05-12T17:49:19.460Z,4.00
2023-05-12T17:51:46.157Z,3.97
2023-05-12T17:56:38.929Z,5.82
2023-05-12T17:59:05.676Z,4.97
2023-05-12T18:16:08.978Z,5.38
2023-05-12T18:18:42.363Z,5.43
2023-05-12T18:21:09.113Z,6.40
2023-05-12T18:23:35.918Z,7.13
2023-05-12T18:26:02.638Z,6.45
2023-05-12T18:28:29.328Z,7.03
2023-05-12T18:30:58.045Z,5.15
2023-05-12T18:33:27.112Z,7.45
2023-05-12T18:38:19.291Z,7.40
2023-05-12T18:40:46.045Z,7.55
2023-05-12T18:45:38.303Z,6.90
2023-05-12T18:48:05.134Z,4.63
2023-05-12T18:50:31.851Z,4.70
2023-05-12T18:52:58.672Z,5.00
2023-05-12T18:55:25.418Z,7.07
2023-05-12T18:57:52.103Z,7.28
2023-05-12T19:00:20.125Z,7.60
2023-05-12T19:02:47.814Z,8.10
2023-05-12T19:05:14.545Z,8.30
2023-05-12T19:07:41.225Z,9.07
2023-05-12T19:10:10.016Z,8.35
2023-05-12T19:17:28.433Z,9.68
2023-05-12T19:22:21.032Z,7.57
2023-05-12T19:24:47.817Z,8.35
2023-05-12T19:29:40.103Z,6.60
2023-05-12T19:32:07.045Z,10.90
2023-05-12T19:49:09.526Z,12.85
2023-05-12T19:51:36.275Z,11.05
2023-05-12T19:54:04.870Z,13.90
2023-05-12T19:58:56.865Z,12.90
2023-05-12T20:01:23.717Z,11.20
2023-05-12T20:06:16.105Z,11.40
2023-05-12T20:08:42.808Z,9.43
2023-05-12T20:13:34.960Z,12.88
2023-05-12T20:16:01.694Z,13.68
2023-05-12T20:23:19.890Z,8.02
2023-05-12T20:25:46.771Z,8.95
2023-05-12T20:28:14.072Z,12.27
2023-05-12T20:35:32.442Z,15.52
2023-05-12T20:37:59.397Z,16.65
2023-05-12T20:40:26.176Z,16.55
2023-05-12T20:42:52.909Z,16.13
2023-05-12T20:45:20.090Z,10.70
2023-05-12T20:47:47.206Z,18.35
2023-05-12T20:50:13.915Z,17.55
2023-05-12T20:57:38.068Z,19.63
2023-05-12T21:00:05.190Z,18.48
2023-05-12T21:02:31.982Z,13.95
2023-05-12T21:04:59.069Z,16.45
2023-05-12T21:07:25.745Z,11.48
2023-05-12T21:09:53.517Z,13.10
2023-05-12T21:12:20.437Z,21.42
2023-05-12T21:14:47.208Z,15.57
2023-05-12T21:17:14.154Z,21.45
2023-05-12T21:19:41.565Z,16.88
2023-05-12T21:24:37.682Z,17.90
2023-05-12T21:27:04.928Z,19.35
2023-05-12T21:34:22.861Z,20.17
2023-05-12T21:36:49.999Z,19.75
2023-05-12T21:39:16.675Z,26.23
2023-05-12T21:41:43.390Z,19.40
2023-05-12T21:49:01.655Z,22.70
2023-05-12T21:51:33.263Z,29.42
2023-05-12T21:54:00.467Z,19.95
2023-05-12T21:56:27.482Z,28.35
2023-05-12T22:01:19.952Z,23.95
2023-05-12T22:03:46.849Z,29.45
2023-05-12T22:06:13.666Z,22.52
2023-05-12T22:08:40.410Z,31.00
2023-05-12T22:11:07.106Z,27.48
2023-05-12T22:13:33.808Z,22.33
2023-05-12T22:16:00.550Z,28.50
2023-05-12T22:18:27.614Z,22.65
2023-05-12T22:23:20.023Z,26.40
2023-05-12T22:25:46.890Z,25.38
2023-05-12T22:30:39.282Z,27.67
2023-05-12T22:33:06.105Z,21.67
2023-05-12T22:40:23.818Z,22.98
2023-05-12T22:45:16.157Z,24.20
2023-05-12T22:47:42.995Z,24.88
2023-05-12T22:52:35.718Z,26.50
2023-05-12T22:55:02.394Z,15.93
2023-05-12T22:57:29.015Z,27.80
2023-05-12T22:59:55.864Z,32.85
2023-05-12T23:02:22.543Z,24.08
2023-05-12T23:04:49.352Z,21.60
2023-05-12T23:07:16.062Z,28.20
2023-05-12T23:09:42.761Z,32.15
2023-05-12T23:12:09.583Z,29.17
2023-05-12T23:14:36.272Z,31.83
2023-05-12T23:17:02.993Z,37.33
2023-05-12T23:19:29.788Z,19.75
2023-05-12T23:21:56.433Z,20.83
2023-05-12T23:24:23.554Z,23.67
2023-05-12T23:26:51.023Z,31.25
2023-05-12T23:29:18.026Z,38.55
2023-05-12T23:31:44.759Z,35.72
2023-05-12T23:36:36.837Z,33.90
2023-05-12T23:39:04.249Z,34.63
2023-05-12T23:43:57.933Z,31.70
2023-05-12T23:46:24.721Z,37.10
2023-05-12T23:48:52.163Z,34.38
2023-05-12T23:51:18.894Z,34.50
2023-05-12T23:53:45.512Z,31.23
2023-05-12T23:56:12.170Z,31.85
2023-05-12T23:58:38.937Z,23.90
